<?xml version="1.0" encoding="UTF-8" standalone="no" ?>
<gpx xmlns="http://www.topografix.com/GPX/1/1" xmlns:xsi="http://www.w3.org/2001/XMLSchema-instance" xsi:schemaLocation="http://www.topografix.com/GPX/1/1 http://www.topografix.com/GPX/1/1/gpx.xsd" version="1.1" creator="VisuGPX - https://www.visugpx.com">
  <metadata>
    <name>Baigura, 897m, depuis la base de loisirs</name>
  </metadata>
  <wpt lat="43.30937" lon="-1.28297">
    <ele>296</ele>
    <name><![CDATA[Point de passage 1]]></name>
    <type><![CDATA[GENERIC]]></type>
  </wpt>
  <wpt lat="43.30934" lon="-1.28286">
    <ele>296</ele>
    <name><![CDATA[Point de passage 2]]></name>
    <type><![CDATA[GENERIC]]></type>
  </wpt>
  <trk>
    <name><![CDATA[Baigura, 897m, depuis la base de loisirs]]></name>
    <trkseg>
      <trkpt lat="43.30937" lon="-1.28297">
        <ele>296</ele>
        <time>2026-08-31T12:40:50.000Z</time>
      </trkpt>
      <trkpt lat="43.30923" lon="-1.28249">
        <ele>298</ele>
        <time>2026-08-31T12:41:54.000Z</time>
      </trkpt>
      <trkpt lat="43.30925" lon="-1.28256">
        <ele>298</ele>
        <time>2026-08-31T12:42:00.000Z</time>
      </trkpt>
      <trkpt lat="43.30882" lon="-1.28247">
        <ele>297</ele>
        <time>2026-08-31T12:42:50.000Z</time>
      </trkpt>
      <trkpt lat="43.30852" lon="-1.28233">
        <ele>294</ele>
        <time>2026-08-31T12:43:26.000Z</time>
      </trkpt>
      <trkpt lat="43.30839" lon="-1.28237">
        <ele>294</ele>
        <time>2026-08-31T12:43:41.000Z</time>
      </trkpt>
      <trkpt lat="43.30826" lon="-1.2827">
        <ele>296</ele>
        <time>2026-08-31T12:44:33.000Z</time>
      </trkpt>
      <trkpt lat="43.30802" lon="-1.28356">
        <ele>299</ele>
        <time>2026-08-31T12:46:21.000Z</time>
      </trkpt>
      <trkpt lat="43.30786" lon="-1.28393">
        <ele>301</ele>
        <time>2026-08-31T12:47:17.000Z</time>
      </trkpt>
      <trkpt lat="43.30764" lon="-1.28418">
        <ele>309</ele>
        <time>2026-08-31T12:49:12.000Z</time>
      </trkpt>
      <trkpt lat="43.3074" lon="-1.28475">
        <ele>321</ele>
        <time>2026-08-31T12:52:10.000Z</time>
      </trkpt>
      <trkpt lat="43.30728" lon="-1.28486">
        <ele>325</ele>
        <time>2026-08-31T12:53:08.000Z</time>
      </trkpt>
      <trkpt lat="43.30718" lon="-1.28508">
        <ele>329</ele>
        <time>2026-08-31T12:54:11.000Z</time>
      </trkpt>
      <trkpt lat="43.30709" lon="-1.28511">
        <ele>332</ele>
        <time>2026-08-31T12:54:53.000Z</time>
      </trkpt>
      <trkpt lat="43.30703" lon="-1.28505">
        <ele>336</ele>
        <time>2026-08-31T12:55:43.000Z</time>
      </trkpt>
      <trkpt lat="43.30704" lon="-1.28485">
        <ele>335</ele>
        <time>2026-08-31T12:56:00.000Z</time>
      </trkpt>
      <trkpt lat="43.30704" lon="-1.28472">
        <ele>335</ele>
        <time>2026-08-31T12:56:11.000Z</time>
      </trkpt>
      <trkpt lat="43.30696" lon="-1.28449">
        <ele>337</ele>
        <time>2026-08-31T12:56:52.000Z</time>
      </trkpt>
      <trkpt lat="43.30657" lon="-1.28418">
        <ele>349</ele>
        <time>2026-08-31T12:59:48.000Z</time>
      </trkpt>
      <trkpt lat="43.30651" lon="-1.28402">
        <ele>350</ele>
        <time>2026-08-31T13:00:13.000Z</time>
      </trkpt>
      <trkpt lat="43.30646" lon="-1.28378">
        <ele>351</ele>
        <time>2026-08-31T13:00:45.000Z</time>
      </trkpt>
      <trkpt lat="43.30626" lon="-1.2834">
        <ele>353</ele>
        <time>2026-08-31T13:01:44.000Z</time>
      </trkpt>
      <trkpt lat="43.30608" lon="-1.28267">
        <ele>357</ele>
        <time>2026-08-31T13:03:29.000Z</time>
      </trkpt>
      <trkpt lat="43.30605" lon="-1.28279">
        <ele>358</ele>
        <time>2026-08-31T13:03:50.000Z</time>
      </trkpt>
      <trkpt lat="43.30598" lon="-1.28277">
        <ele>360</ele>
        <time>2026-08-31T13:04:19.000Z</time>
      </trkpt>
      <trkpt lat="43.30594" lon="-1.28271">
        <ele>361</ele>
        <time>2026-08-31T13:04:35.000Z</time>
      </trkpt>
      <trkpt lat="43.30551" lon="-1.28181">
        <ele>373</ele>
        <time>2026-08-31T13:08:09.000Z</time>
      </trkpt>
      <trkpt lat="43.30544" lon="-1.28169">
        <ele>376</ele>
        <time>2026-08-31T13:08:53.000Z</time>
      </trkpt>
      <trkpt lat="43.30529" lon="-1.28157">
        <ele>379</ele>
        <time>2026-08-31T13:09:43.000Z</time>
      </trkpt>
      <trkpt lat="43.30515" lon="-1.28155">
        <ele>382</ele>
        <time>2026-08-31T13:10:30.000Z</time>
      </trkpt>
      <trkpt lat="43.3051" lon="-1.28158">
        <ele>383</ele>
        <time>2026-08-31T13:10:46.000Z</time>
      </trkpt>
      <trkpt lat="43.30489" lon="-1.28189">
        <ele>393</ele>
        <time>2026-08-31T13:13:04.000Z</time>
      </trkpt>
      <trkpt lat="43.30452" lon="-1.28226">
        <ele>408</ele>
        <time>2026-08-31T13:16:31.000Z</time>
      </trkpt>
      <trkpt lat="43.30445" lon="-1.28244">
        <ele>411</ele>
        <time>2026-08-31T13:17:19.000Z</time>
      </trkpt>
      <trkpt lat="43.30429" lon="-1.28269">
        <ele>419</ele>
        <time>2026-08-31T13:19:09.000Z</time>
      </trkpt>
      <trkpt lat="43.30425" lon="-1.28272">
        <ele>420</ele>
        <time>2026-08-31T13:19:25.000Z</time>
      </trkpt>
      <trkpt lat="43.30412" lon="-1.28272">
        <ele>422</ele>
        <time>2026-08-31T13:20:00.000Z</time>
      </trkpt>
      <trkpt lat="43.30409" lon="-1.28283">
        <ele>423</ele>
        <time>2026-08-31T13:20:20.000Z</time>
      </trkpt>
      <trkpt lat="43.30401" lon="-1.28288">
        <ele>424</ele>
        <time>2026-08-31T13:20:40.000Z</time>
      </trkpt>
      <trkpt lat="43.30406" lon="-1.28302">
        <ele>427</ele>
        <time>2026-08-31T13:21:24.000Z</time>
      </trkpt>
      <trkpt lat="43.30395" lon="-1.28335">
        <ele>433</ele>
        <time>2026-08-31T13:22:56.000Z</time>
      </trkpt>
      <trkpt lat="43.30393" lon="-1.28361">
        <ele>439</ele>
        <time>2026-08-31T13:24:20.000Z</time>
      </trkpt>
      <trkpt lat="43.30382" lon="-1.28378">
        <ele>441</ele>
        <time>2026-08-31T13:24:59.000Z</time>
      </trkpt>
      <trkpt lat="43.30373" lon="-1.28406">
        <ele>446</ele>
        <time>2026-08-31T13:26:16.000Z</time>
      </trkpt>
      <trkpt lat="43.30337" lon="-1.28483">
        <ele>458</ele>
        <time>2026-08-31T13:29:36.000Z</time>
      </trkpt>
      <trkpt lat="43.30304" lon="-1.28528">
        <ele>464</ele>
        <time>2026-08-31T13:31:31.000Z</time>
      </trkpt>
      <trkpt lat="43.30298" lon="-1.28539">
        <ele>466</ele>
        <time>2026-08-31T13:32:03.000Z</time>
      </trkpt>
      <trkpt lat="43.30297" lon="-1.28545">
        <ele>467</ele>
        <time>2026-08-31T13:32:18.000Z</time>
      </trkpt>
      <trkpt lat="43.30297" lon="-1.28582">
        <ele>469</ele>
        <time>2026-08-31T13:33:10.000Z</time>
      </trkpt>
      <trkpt lat="43.30268" lon="-1.28601">
        <ele>473</ele>
        <time>2026-08-31T13:34:28.000Z</time>
      </trkpt>
      <trkpt lat="43.30239" lon="-1.28619">
        <ele>482</ele>
        <time>2026-08-31T13:36:37.000Z</time>
      </trkpt>
      <trkpt lat="43.30203" lon="-1.28631">
        <ele>493</ele>
        <time>2026-08-31T13:39:12.000Z</time>
      </trkpt>
      <trkpt lat="43.30182" lon="-1.28633">
        <ele>500</ele>
        <time>2026-08-31T13:40:48.000Z</time>
      </trkpt>
      <trkpt lat="43.30176" lon="-1.28638">
        <ele>502</ele>
        <time>2026-08-31T13:41:17.000Z</time>
      </trkpt>
      <trkpt lat="43.30174" lon="-1.28646">
        <ele>503</ele>
        <time>2026-08-31T13:41:34.000Z</time>
      </trkpt>
      <trkpt lat="43.30176" lon="-1.28638">
        <ele>502</ele>
        <time>2026-08-31T13:41:41.000Z</time>
      </trkpt>
      <trkpt lat="43.30146" lon="-1.28658">
        <ele>513</ele>
        <time>2026-08-31T13:44:12.000Z</time>
      </trkpt>
      <trkpt lat="43.30132" lon="-1.28662">
        <ele>518</ele>
        <time>2026-08-31T13:45:21.000Z</time>
      </trkpt>
      <trkpt lat="43.30095" lon="-1.28683">
        <ele>532</ele>
        <time>2026-08-31T13:48:30.000Z</time>
      </trkpt>
      <trkpt lat="43.30074" lon="-1.28687">
        <ele>538</ele>
        <time>2026-08-31T13:49:57.000Z</time>
      </trkpt>
      <trkpt lat="43.30007" lon="-1.28721">
        <ele>560</ele>
        <time>2026-08-31T13:55:05.000Z</time>
      </trkpt>
      <trkpt lat="43.29983" lon="-1.28747">
        <ele>567</ele>
        <time>2026-08-31T13:56:52.000Z</time>
      </trkpt>
      <trkpt lat="43.29967" lon="-1.28751">
        <ele>572</ele>
        <time>2026-08-31T13:58:02.000Z</time>
      </trkpt>
      <trkpt lat="43.29955" lon="-1.28763">
        <ele>577</ele>
        <time>2026-08-31T13:59:10.000Z</time>
      </trkpt>
      <trkpt lat="43.29941" lon="-1.28771">
        <ele>584</ele>
        <time>2026-08-31T14:00:39.000Z</time>
      </trkpt>
      <trkpt lat="43.29933" lon="-1.28785">
        <ele>588</ele>
        <time>2026-08-31T14:01:35.000Z</time>
      </trkpt>
      <trkpt lat="43.29928" lon="-1.28804">
        <ele>592</ele>
        <time>2026-08-31T14:02:33.000Z</time>
      </trkpt>
      <trkpt lat="43.29913" lon="-1.28842">
        <ele>601</ele>
        <time>2026-08-31T14:04:41.000Z</time>
      </trkpt>
      <trkpt lat="43.29912" lon="-1.28862">
        <ele>599</ele>
        <time>2026-08-31T14:04:58.000Z</time>
      </trkpt>
      <trkpt lat="43.29884" lon="-1.28904">
        <ele>613</ele>
        <time>2026-08-31T14:08:10.000Z</time>
      </trkpt>
      <trkpt lat="43.29878" lon="-1.28926">
        <ele>617</ele>
        <time>2026-08-31T14:09:11.000Z</time>
      </trkpt>
      <trkpt lat="43.29864" lon="-1.28948">
        <ele>630</ele>
        <time>2026-08-31T14:11:50.000Z</time>
      </trkpt>
      <trkpt lat="43.29859" lon="-1.29062">
        <ele>647</ele>
        <time>2026-08-31T14:16:20.000Z</time>
      </trkpt>
      <trkpt lat="43.29852" lon="-1.2908">
        <ele>652</ele>
        <time>2026-08-31T14:17:28.000Z</time>
      </trkpt>
      <trkpt lat="43.29848" lon="-1.29119">
        <ele>658</ele>
        <time>2026-08-31T14:19:03.000Z</time>
      </trkpt>
      <trkpt lat="43.29844" lon="-1.29132">
        <ele>664</ele>
        <time>2026-08-31T14:20:17.000Z</time>
      </trkpt>
      <trkpt lat="43.29837" lon="-1.29134">
        <ele>671</ele>
        <time>2026-08-31T14:21:36.000Z</time>
      </trkpt>
      <trkpt lat="43.29831" lon="-1.29126">
        <ele>674</ele>
        <time>2026-08-31T14:22:17.000Z</time>
      </trkpt>
      <trkpt lat="43.29832" lon="-1.29135">
        <ele>675</ele>
        <time>2026-08-31T14:22:34.000Z</time>
      </trkpt>
      <trkpt lat="43.29823" lon="-1.29149">
        <ele>679</ele>
        <time>2026-08-31T14:23:31.000Z</time>
      </trkpt>
      <trkpt lat="43.29792" lon="-1.29153">
        <ele>691</ele>
        <time>2026-08-31T14:26:09.000Z</time>
      </trkpt>
      <trkpt lat="43.29784" lon="-1.29162">
        <ele>694</ele>
        <time>2026-08-31T14:26:53.000Z</time>
      </trkpt>
      <trkpt lat="43.29781" lon="-1.29165">
        <ele>695</ele>
        <time>2026-08-31T14:27:07.000Z</time>
      </trkpt>
      <trkpt lat="43.29781" lon="-1.29156">
        <ele>697</ele>
        <time>2026-08-31T14:27:35.000Z</time>
      </trkpt>
      <trkpt lat="43.29777" lon="-1.29149">
        <ele>702</ele>
        <time>2026-08-31T14:28:34.000Z</time>
      </trkpt>
      <trkpt lat="43.29766" lon="-1.29142">
        <ele>708</ele>
        <time>2026-08-31T14:29:50.000Z</time>
      </trkpt>
      <trkpt lat="43.29752" lon="-1.29143">
        <ele>712</ele>
        <time>2026-08-31T14:30:47.000Z</time>
      </trkpt>
      <trkpt lat="43.29735" lon="-1.29119">
        <ele>724</ele>
        <time>2026-08-31T14:33:19.000Z</time>
      </trkpt>
      <trkpt lat="43.29732" lon="-1.29117">
        <ele>725</ele>
        <time>2026-08-31T14:33:32.000Z</time>
      </trkpt>
      <trkpt lat="43.2973" lon="-1.29122">
        <ele>728</ele>
        <time>2026-08-31T14:34:08.000Z</time>
      </trkpt>
      <trkpt lat="43.29725" lon="-1.29145">
        <ele>729</ele>
        <time>2026-08-31T14:34:38.000Z</time>
      </trkpt>
      <trkpt lat="43.29715" lon="-1.29163">
        <ele>729</ele>
        <time>2026-08-31T14:34:57.000Z</time>
      </trkpt>
      <trkpt lat="43.29684" lon="-1.29186">
        <ele>734</ele>
        <time>2026-08-31T14:36:29.000Z</time>
      </trkpt>
      <trkpt lat="43.29662" lon="-1.29186">
        <ele>738</ele>
        <time>2026-08-31T14:37:35.000Z</time>
      </trkpt>
      <trkpt lat="43.29634" lon="-1.29163">
        <ele>750</ele>
        <time>2026-08-31T14:40:15.000Z</time>
      </trkpt>
      <trkpt lat="43.29608" lon="-1.29156">
        <ele>758</ele>
        <time>2026-08-31T14:42:08.000Z</time>
      </trkpt>
      <trkpt lat="43.29602" lon="-1.29147">
        <ele>762</ele>
        <time>2026-08-31T14:42:59.000Z</time>
      </trkpt>
      <trkpt lat="43.29557" lon="-1.2912">
        <ele>778</ele>
        <time>2026-08-31T14:46:39.000Z</time>
      </trkpt>
      <trkpt lat="43.29543" lon="-1.29106">
        <ele>785</ele>
        <time>2026-08-31T14:48:11.000Z</time>
      </trkpt>
      <trkpt lat="43.29486" lon="-1.29087">
        <ele>804</ele>
        <time>2026-08-31T14:52:34.000Z</time>
      </trkpt>
      <trkpt lat="43.29447" lon="-1.29077">
        <ele>815</ele>
        <time>2026-08-31T14:55:13.000Z</time>
      </trkpt>
      <trkpt lat="43.29426" lon="-1.29079">
        <ele>821</ele>
        <time>2026-08-31T14:56:38.000Z</time>
      </trkpt>
      <trkpt lat="43.29394" lon="-1.29089">
        <ele>829</ele>
        <time>2026-08-31T14:58:38.000Z</time>
      </trkpt>
      <trkpt lat="43.29353" lon="-1.29108">
        <ele>839</ele>
        <time>2026-08-31T15:01:11.000Z</time>
      </trkpt>
      <trkpt lat="43.29329" lon="-1.29115">
        <ele>843</ele>
        <time>2026-08-31T15:02:20.000Z</time>
      </trkpt>
      <trkpt lat="43.29301" lon="-1.29119">
        <ele>847</ele>
        <time>2026-08-31T15:03:33.000Z</time>
      </trkpt>
      <trkpt lat="43.29283" lon="-1.29126">
        <ele>852</ele>
        <time>2026-08-31T15:04:46.000Z</time>
      </trkpt>
      <trkpt lat="43.29281" lon="-1.29115">
        <ele>853</ele>
        <time>2026-08-31T15:05:06.000Z</time>
      </trkpt>
      <trkpt lat="43.29276" lon="-1.29103">
        <ele>855</ele>
        <time>2026-08-31T15:05:38.000Z</time>
      </trkpt>
      <trkpt lat="43.29256" lon="-1.29128">
        <ele>856</ele>
        <time>2026-08-31T15:06:20.000Z</time>
      </trkpt>
      <trkpt lat="43.29216" lon="-1.29161">
        <ele>866</ele>
        <time>2026-08-31T15:08:56.000Z</time>
      </trkpt>
      <trkpt lat="43.29207" lon="-1.29176">
        <ele>865</ele>
        <time>2026-08-31T15:09:12.000Z</time>
      </trkpt>
      <trkpt lat="43.29192" lon="-1.29178">
        <ele>867</ele>
        <time>2026-08-31T15:09:50.000Z</time>
      </trkpt>
      <trkpt lat="43.29176" lon="-1.2919">
        <ele>868</ele>
        <time>2026-08-31T15:10:22.000Z</time>
      </trkpt>
      <trkpt lat="43.29113" lon="-1.29224">
        <ele>878</ele>
        <time>2026-08-31T15:13:22.000Z</time>
      </trkpt>
      <trkpt lat="43.29085" lon="-1.29243">
        <ele>887</ele>
        <time>2026-08-31T15:15:30.000Z</time>
      </trkpt>
      <trkpt lat="43.29072" lon="-1.2926">
        <ele>892</ele>
        <time>2026-08-31T15:16:42.000Z</time>
      </trkpt>
      <trkpt lat="43.2907" lon="-1.29268">
        <ele>892</ele>
        <time>2026-08-31T15:16:49.000Z</time>
      </trkpt>
      <trkpt lat="43.29046" lon="-1.29293">
        <ele>896</ele>
        <time>2026-08-31T15:18:04.000Z</time>
      </trkpt>
      <trkpt lat="43.29044" lon="-1.29311">
        <ele>893</ele>
        <time>2026-08-31T15:18:19.000Z</time>
      </trkpt>
      <trkpt lat="43.29048" lon="-1.29337">
        <ele>887</ele>
        <time>2026-08-31T15:18:41.000Z</time>
      </trkpt>
      <trkpt lat="43.29058" lon="-1.2935">
        <ele>883</ele>
        <time>2026-08-31T15:18:57.000Z</time>
      </trkpt>
      <trkpt lat="43.29043" lon="-1.29359">
        <ele>886</ele>
        <time>2026-08-31T15:19:47.000Z</time>
      </trkpt>
      <trkpt lat="43.29033" lon="-1.29371">
        <ele>888</ele>
        <time>2026-08-31T15:20:23.000Z</time>
      </trkpt>
      <trkpt lat="43.2902" lon="-1.29401">
        <ele>889</ele>
        <time>2026-08-31T15:21:02.000Z</time>
      </trkpt>
      <trkpt lat="43.2902" lon="-1.29412">
        <ele>888</ele>
        <time>2026-08-31T15:21:11.000Z</time>
      </trkpt>
      <trkpt lat="43.29019" lon="-1.29421">
        <ele>886</ele>
        <time>2026-08-31T15:21:19.000Z</time>
      </trkpt>
      <trkpt lat="43.29006" lon="-1.29433">
        <ele>885</ele>
        <time>2026-08-31T15:21:37.000Z</time>
      </trkpt>
      <trkpt lat="43.29" lon="-1.29456">
        <ele>882</ele>
        <time>2026-08-31T15:21:57.000Z</time>
      </trkpt>
      <trkpt lat="43.28985" lon="-1.29483">
        <ele>877</ele>
        <time>2026-08-31T15:22:26.000Z</time>
      </trkpt>
      <trkpt lat="43.29" lon="-1.29456">
        <ele>882</ele>
        <time>2026-08-31T15:23:46.000Z</time>
      </trkpt>
      <trkpt lat="43.29006" lon="-1.29433">
        <ele>885</ele>
        <time>2026-08-31T15:24:37.000Z</time>
      </trkpt>
      <trkpt lat="43.29021" lon="-1.29417">
        <ele>886</ele>
        <time>2026-08-31T15:25:09.000Z</time>
      </trkpt>
      <trkpt lat="43.2902" lon="-1.29401">
        <ele>889</ele>
        <time>2026-08-31T15:25:53.000Z</time>
      </trkpt>
      <trkpt lat="43.29033" lon="-1.29371">
        <ele>888</ele>
        <time>2026-08-31T15:26:22.000Z</time>
      </trkpt>
      <trkpt lat="43.29043" lon="-1.29359">
        <ele>886</ele>
        <time>2026-08-31T15:26:37.000Z</time>
      </trkpt>
      <trkpt lat="43.29066" lon="-1.29343">
        <ele>882</ele>
        <time>2026-08-31T15:27:07.000Z</time>
      </trkpt>
      <trkpt lat="43.2908" lon="-1.29328">
        <ele>881</ele>
        <time>2026-08-31T15:27:27.000Z</time>
      </trkpt>
      <trkpt lat="43.29095" lon="-1.29302">
        <ele>880</ele>
        <time>2026-08-31T15:27:55.000Z</time>
      </trkpt>
      <trkpt lat="43.29104" lon="-1.29295">
        <ele>877</ele>
        <time>2026-08-31T15:28:07.000Z</time>
      </trkpt>
      <trkpt lat="43.29139" lon="-1.29251">
        <ele>871</ele>
        <time>2026-08-31T15:29:01.000Z</time>
      </trkpt>
      <trkpt lat="43.29144" lon="-1.29237">
        <ele>870</ele>
        <time>2026-08-31T15:29:14.000Z</time>
      </trkpt>
      <trkpt lat="43.29164" lon="-1.29211">
        <ele>868</ele>
        <time>2026-08-31T15:29:45.000Z</time>
      </trkpt>
      <trkpt lat="43.29176" lon="-1.2919">
        <ele>868</ele>
        <time>2026-08-31T15:30:07.000Z</time>
      </trkpt>
      <trkpt lat="43.29194" lon="-1.29176">
        <ele>867</ele>
        <time>2026-08-31T15:30:31.000Z</time>
      </trkpt>
      <trkpt lat="43.29207" lon="-1.29176">
        <ele>865</ele>
        <time>2026-08-31T15:30:46.000Z</time>
      </trkpt>
      <trkpt lat="43.29216" lon="-1.29161">
        <ele>866</ele>
        <time>2026-08-31T15:31:12.000Z</time>
      </trkpt>
      <trkpt lat="43.29256" lon="-1.29128">
        <ele>856</ele>
        <time>2026-08-31T15:32:05.000Z</time>
      </trkpt>
      <trkpt lat="43.29276" lon="-1.29103">
        <ele>855</ele>
        <time>2026-08-31T15:32:36.000Z</time>
      </trkpt>
      <trkpt lat="43.29301" lon="-1.29082">
        <ele>857</ele>
        <time>2026-08-31T15:33:30.000Z</time>
      </trkpt>
      <trkpt lat="43.2931" lon="-1.29065">
        <ele>857</ele>
        <time>2026-08-31T15:33:47.000Z</time>
      </trkpt>
      <trkpt lat="43.29353" lon="-1.29032">
        <ele>849</ele>
        <time>2026-08-31T15:34:43.000Z</time>
      </trkpt>
      <trkpt lat="43.29385" lon="-1.28991">
        <ele>844</ele>
        <time>2026-08-31T15:35:33.000Z</time>
      </trkpt>
      <trkpt lat="43.29402" lon="-1.28954">
        <ele>845</ele>
        <time>2026-08-31T15:36:20.000Z</time>
      </trkpt>
      <trkpt lat="43.29415" lon="-1.28939">
        <ele>844</ele>
        <time>2026-08-31T15:36:39.000Z</time>
      </trkpt>
      <trkpt lat="43.29442" lon="-1.2891">
        <ele>852</ele>
        <time>2026-08-31T15:38:41.000Z</time>
      </trkpt>
      <trkpt lat="43.29458" lon="-1.2887">
        <ele>862</ele>
        <time>2026-08-31T15:41:02.000Z</time>
      </trkpt>
      <trkpt lat="43.2947" lon="-1.28878">
        <ele>864</ele>
        <time>2026-08-31T15:41:38.000Z</time>
      </trkpt>
      <trkpt lat="43.2947" lon="-1.28867">
        <ele>864</ele>
        <time>2026-08-31T15:41:47.000Z</time>
      </trkpt>
      <trkpt lat="43.29467" lon="-1.28853">
        <ele>865</ele>
        <time>2026-08-31T15:42:09.000Z</time>
      </trkpt>
      <trkpt lat="43.29468" lon="-1.28714">
        <ele>826</ele>
        <time>2026-08-31T15:44:05.000Z</time>
      </trkpt>
      <trkpt lat="43.29467" lon="-1.28698">
        <ele>823</ele>
        <time>2026-08-31T15:44:19.000Z</time>
      </trkpt>
      <trkpt lat="43.29462" lon="-1.28681">
        <ele>819</ele>
        <time>2026-08-31T15:44:34.000Z</time>
      </trkpt>
      <trkpt lat="43.29461" lon="-1.28605">
        <ele>802</ele>
        <time>2026-08-31T15:45:38.000Z</time>
      </trkpt>
      <trkpt lat="43.29453" lon="-1.28565">
        <ele>794</ele>
        <time>2026-08-31T15:46:12.000Z</time>
      </trkpt>
      <trkpt lat="43.29442" lon="-1.28539">
        <ele>793</ele>
        <time>2026-08-31T15:46:38.000Z</time>
      </trkpt>
      <trkpt lat="43.29436" lon="-1.28513">
        <ele>794</ele>
        <time>2026-08-31T15:47:11.000Z</time>
      </trkpt>
      <trkpt lat="43.29431" lon="-1.28503">
        <ele>793</ele>
        <time>2026-08-31T15:47:21.000Z</time>
      </trkpt>
      <trkpt lat="43.29429" lon="-1.28486">
        <ele>791</ele>
        <time>2026-08-31T15:47:35.000Z</time>
      </trkpt>
      <trkpt lat="43.29422" lon="-1.28469">
        <ele>793</ele>
        <time>2026-08-31T15:48:12.000Z</time>
      </trkpt>
      <trkpt lat="43.29419" lon="-1.2843">
        <ele>790</ele>
        <time>2026-08-31T15:48:44.000Z</time>
      </trkpt>
      <trkpt lat="43.29422" lon="-1.28421">
        <ele>787</ele>
        <time>2026-08-31T15:48:53.000Z</time>
      </trkpt>
      <trkpt lat="43.29421" lon="-1.28395">
        <ele>783</ele>
        <time>2026-08-31T15:49:14.000Z</time>
      </trkpt>
      <trkpt lat="43.29403" lon="-1.28339">
        <ele>783</ele>
        <time>2026-08-31T15:50:06.000Z</time>
      </trkpt>
      <trkpt lat="43.29407" lon="-1.28312">
        <ele>783</ele>
        <time>2026-08-31T15:50:29.000Z</time>
      </trkpt>
      <trkpt lat="43.29407" lon="-1.28293">
        <ele>781</ele>
        <time>2026-08-31T15:50:44.000Z</time>
      </trkpt>
      <trkpt lat="43.29398" lon="-1.28264">
        <ele>780</ele>
        <time>2026-08-31T15:51:10.000Z</time>
      </trkpt>
      <trkpt lat="43.29399" lon="-1.28245">
        <ele>777</ele>
        <time>2026-08-31T15:51:26.000Z</time>
      </trkpt>
      <trkpt lat="43.29391" lon="-1.28213">
        <ele>778</ele>
        <time>2026-08-31T15:52:04.000Z</time>
      </trkpt>
      <trkpt lat="43.29384" lon="-1.28182">
        <ele>775</ele>
        <time>2026-08-31T15:52:32.000Z</time>
      </trkpt>
      <trkpt lat="43.29372" lon="-1.28157">
        <ele>771</ele>
        <time>2026-08-31T15:52:56.000Z</time>
      </trkpt>
      <trkpt lat="43.29362" lon="-1.28152">
        <ele>768</ele>
        <time>2026-08-31T15:53:08.000Z</time>
      </trkpt>
      <trkpt lat="43.29335" lon="-1.2811">
        <ele>761</ele>
        <time>2026-08-31T15:53:54.000Z</time>
      </trkpt>
      <trkpt lat="43.29318" lon="-1.28072">
        <ele>757</ele>
        <time>2026-08-31T15:54:31.000Z</time>
      </trkpt>
      <trkpt lat="43.29277" lon="-1.2802">
        <ele>752</ele>
        <time>2026-08-31T15:55:35.000Z</time>
      </trkpt>
      <trkpt lat="43.2925" lon="-1.28002">
        <ele>745</ele>
        <time>2026-08-31T15:56:10.000Z</time>
      </trkpt>
      <trkpt lat="43.29222" lon="-1.27954">
        <ele>741</ele>
        <time>2026-08-31T15:57:01.000Z</time>
      </trkpt>
      <trkpt lat="43.29184" lon="-1.27931">
        <ele>730</ele>
        <time>2026-08-31T15:57:48.000Z</time>
      </trkpt>
      <trkpt lat="43.29173" lon="-1.27915">
        <ele>728</ele>
        <time>2026-08-31T15:58:07.000Z</time>
      </trkpt>
      <trkpt lat="43.2915" lon="-1.27893">
        <ele>725</ele>
        <time>2026-08-31T15:58:39.000Z</time>
      </trkpt>
      <trkpt lat="43.29086" lon="-1.27849">
        <ele>711</ele>
        <time>2026-08-31T16:00:01.000Z</time>
      </trkpt>
      <trkpt lat="43.29025" lon="-1.27816">
        <ele>698</ele>
        <time>2026-08-31T16:01:17.000Z</time>
      </trkpt>
      <trkpt lat="43.28994" lon="-1.278">
        <ele>695</ele>
        <time>2026-08-31T16:01:55.000Z</time>
      </trkpt>
      <trkpt lat="43.28976" lon="-1.27783">
        <ele>693</ele>
        <time>2026-08-31T16:02:20.000Z</time>
      </trkpt>
      <trkpt lat="43.28962" lon="-1.27775">
        <ele>688</ele>
        <time>2026-08-31T16:02:37.000Z</time>
      </trkpt>
      <trkpt lat="43.28952" lon="-1.27761">
        <ele>685</ele>
        <time>2026-08-31T16:02:53.000Z</time>
      </trkpt>
      <trkpt lat="43.28937" lon="-1.27754">
        <ele>679</ele>
        <time>2026-08-31T16:03:11.000Z</time>
      </trkpt>
      <trkpt lat="43.28879" lon="-1.27708">
        <ele>663</ele>
        <time>2026-08-31T16:04:27.000Z</time>
      </trkpt>
      <trkpt lat="43.28848" lon="-1.27676">
        <ele>657</ele>
        <time>2026-08-31T16:05:12.000Z</time>
      </trkpt>
      <trkpt lat="43.28779" lon="-1.27579">
        <ele>640</ele>
        <time>2026-08-31T16:07:05.000Z</time>
      </trkpt>
      <trkpt lat="43.28753" lon="-1.2756">
        <ele>638</ele>
        <time>2026-08-31T16:07:38.000Z</time>
      </trkpt>
      <trkpt lat="43.28717" lon="-1.27522">
        <ele>634</ele>
        <time>2026-08-31T16:08:30.000Z</time>
      </trkpt>
      <trkpt lat="43.28709" lon="-1.27504">
        <ele>632</ele>
        <time>2026-08-31T16:08:48.000Z</time>
      </trkpt>
      <trkpt lat="43.28747" lon="-1.27514">
        <ele>630</ele>
        <time>2026-08-31T16:09:33.000Z</time>
      </trkpt>
      <trkpt lat="43.28786" lon="-1.27524">
        <ele>623</ele>
        <time>2026-08-31T16:10:18.000Z</time>
      </trkpt>
      <trkpt lat="43.28821" lon="-1.2752">
        <ele>620</ele>
        <time>2026-08-31T16:10:58.000Z</time>
      </trkpt>
      <trkpt lat="43.28841" lon="-1.27513">
        <ele>618</ele>
        <time>2026-08-31T16:11:21.000Z</time>
      </trkpt>
      <trkpt lat="43.28864" lon="-1.275">
        <ele>618</ele>
        <time>2026-08-31T16:11:50.000Z</time>
      </trkpt>
      <trkpt lat="43.28908" lon="-1.27465">
        <ele>625</ele>
        <time>2026-08-31T16:14:00.000Z</time>
      </trkpt>
      <trkpt lat="43.28974" lon="-1.27407">
        <ele>625</ele>
        <time>2026-08-31T16:15:30.000Z</time>
      </trkpt>
      <trkpt lat="43.29041" lon="-1.2735">
        <ele>618</ele>
        <time>2026-08-31T16:17:00.000Z</time>
      </trkpt>
      <trkpt lat="43.29066" lon="-1.27333">
        <ele>614</ele>
        <time>2026-08-31T16:17:32.000Z</time>
      </trkpt>
      <trkpt lat="43.29088" lon="-1.27325">
        <ele>611</ele>
        <time>2026-08-31T16:17:58.000Z</time>
      </trkpt>
      <trkpt lat="43.29108" lon="-1.27316">
        <ele>611</ele>
        <time>2026-08-31T16:18:23.000Z</time>
      </trkpt>
      <trkpt lat="43.29156" lon="-1.27283">
        <ele>604</ele>
        <time>2026-08-31T16:19:25.000Z</time>
      </trkpt>
      <trkpt lat="43.29171" lon="-1.27281">
        <ele>604</ele>
        <time>2026-08-31T16:19:42.000Z</time>
      </trkpt>
      <trkpt lat="43.29196" lon="-1.27292">
        <ele>606</ele>
        <time>2026-08-31T16:20:33.000Z</time>
      </trkpt>
      <trkpt lat="43.29217" lon="-1.27281">
        <ele>602</ele>
        <time>2026-08-31T16:20:58.000Z</time>
      </trkpt>
      <trkpt lat="43.29255" lon="-1.27259">
        <ele>590</ele>
        <time>2026-08-31T16:21:45.000Z</time>
      </trkpt>
      <trkpt lat="43.29281" lon="-1.27256">
        <ele>582</ele>
        <time>2026-08-31T16:22:15.000Z</time>
      </trkpt>
      <trkpt lat="43.293" lon="-1.2724">
        <ele>575</ele>
        <time>2026-08-31T16:22:41.000Z</time>
      </trkpt>
      <trkpt lat="43.29314" lon="-1.27301">
        <ele>576</ele>
        <time>2026-08-31T16:23:45.000Z</time>
      </trkpt>
      <trkpt lat="43.29318" lon="-1.27329">
        <ele>571</ele>
        <time>2026-08-31T16:24:09.000Z</time>
      </trkpt>
      <trkpt lat="43.29324" lon="-1.27346">
        <ele>570</ele>
        <time>2026-08-31T16:24:24.000Z</time>
      </trkpt>
      <trkpt lat="43.29337" lon="-1.27361">
        <ele>570</ele>
        <time>2026-08-31T16:24:44.000Z</time>
      </trkpt>
      <trkpt lat="43.2939" lon="-1.27391">
        <ele>576</ele>
        <time>2026-08-31T16:26:52.000Z</time>
      </trkpt>
      <trkpt lat="43.29404" lon="-1.27402">
        <ele>575</ele>
        <time>2026-08-31T16:27:10.000Z</time>
      </trkpt>
      <trkpt lat="43.29413" lon="-1.27412">
        <ele>575</ele>
        <time>2026-08-31T16:27:24.000Z</time>
      </trkpt>
      <trkpt lat="43.29436" lon="-1.27461">
        <ele>574</ele>
        <time>2026-08-31T16:28:13.000Z</time>
      </trkpt>
      <trkpt lat="43.29453" lon="-1.2752">
        <ele>572</ele>
        <time>2026-08-31T16:29:06.000Z</time>
      </trkpt>
      <trkpt lat="43.29462" lon="-1.27595">
        <ele>575</ele>
        <time>2026-08-31T16:30:40.000Z</time>
      </trkpt>
      <trkpt lat="43.29457" lon="-1.27615">
        <ele>575</ele>
        <time>2026-08-31T16:30:58.000Z</time>
      </trkpt>
      <trkpt lat="43.29458" lon="-1.27621">
        <ele>577</ele>
        <time>2026-08-31T16:31:24.000Z</time>
      </trkpt>
      <trkpt lat="43.29463" lon="-1.27625">
        <ele>577</ele>
        <time>2026-08-31T16:31:31.000Z</time>
      </trkpt>
      <trkpt lat="43.29484" lon="-1.27639">
        <ele>570</ele>
        <time>2026-08-31T16:31:57.000Z</time>
      </trkpt>
      <trkpt lat="43.29498" lon="-1.27653">
        <ele>572</ele>
        <time>2026-08-31T16:32:37.000Z</time>
      </trkpt>
      <trkpt lat="43.29525" lon="-1.27692">
        <ele>569</ele>
        <time>2026-08-31T16:33:22.000Z</time>
      </trkpt>
      <trkpt lat="43.29532" lon="-1.27739">
        <ele>568</ele>
        <time>2026-08-31T16:34:01.000Z</time>
      </trkpt>
      <trkpt lat="43.29529" lon="-1.27775">
        <ele>569</ele>
        <time>2026-08-31T16:34:41.000Z</time>
      </trkpt>
      <trkpt lat="43.29555" lon="-1.27825">
        <ele>571</ele>
        <time>2026-08-31T16:35:53.000Z</time>
      </trkpt>
      <trkpt lat="43.29586" lon="-1.2787">
        <ele>571</ele>
        <time>2026-08-31T16:36:46.000Z</time>
      </trkpt>
      <trkpt lat="43.29618" lon="-1.27882">
        <ele>566</ele>
        <time>2026-08-31T16:37:24.000Z</time>
      </trkpt>
      <trkpt lat="43.29669" lon="-1.27891">
        <ele>562</ele>
        <time>2026-08-31T16:38:22.000Z</time>
      </trkpt>
      <trkpt lat="43.29675" lon="-1.27896">
        <ele>562</ele>
        <time>2026-08-31T16:38:30.000Z</time>
      </trkpt>
      <trkpt lat="43.29692" lon="-1.27916">
        <ele>561</ele>
        <time>2026-08-31T16:38:55.000Z</time>
      </trkpt>
      <trkpt lat="43.29732" lon="-1.27984">
        <ele>549</ele>
        <time>2026-08-31T16:40:08.000Z</time>
      </trkpt>
      <trkpt lat="43.29753" lon="-1.28035">
        <ele>540</ele>
        <time>2026-08-31T16:40:57.000Z</time>
      </trkpt>
      <trkpt lat="43.2978" lon="-1.28059">
        <ele>535</ele>
        <time>2026-08-31T16:41:34.000Z</time>
      </trkpt>
      <trkpt lat="43.29801" lon="-1.28091">
        <ele>530</ele>
        <time>2026-08-31T16:42:09.000Z</time>
      </trkpt>
      <trkpt lat="43.29809" lon="-1.28095">
        <ele>527</ele>
        <time>2026-08-31T16:42:19.000Z</time>
      </trkpt>
      <trkpt lat="43.29829" lon="-1.28093">
        <ele>522</ele>
        <time>2026-08-31T16:42:42.000Z</time>
      </trkpt>
      <trkpt lat="43.29847" lon="-1.28132">
        <ele>524</ele>
        <time>2026-08-31T16:43:41.000Z</time>
      </trkpt>
      <trkpt lat="43.29871" lon="-1.28223">
        <ele>521</ele>
        <time>2026-08-31T16:45:01.000Z</time>
      </trkpt>
      <trkpt lat="43.29871" lon="-1.28267">
        <ele>519</ele>
        <time>2026-08-31T16:45:38.000Z</time>
      </trkpt>
      <trkpt lat="43.29865" lon="-1.28284">
        <ele>519</ele>
        <time>2026-08-31T16:45:53.000Z</time>
      </trkpt>
      <trkpt lat="43.29855" lon="-1.28297">
        <ele>518</ele>
        <time>2026-08-31T16:46:09.000Z</time>
      </trkpt>
      <trkpt lat="43.2985" lon="-1.28303">
        <ele>518</ele>
        <time>2026-08-31T16:46:17.000Z</time>
      </trkpt>
      <trkpt lat="43.29852" lon="-1.2831">
        <ele>518</ele>
        <time>2026-08-31T16:46:24.000Z</time>
      </trkpt>
      <trkpt lat="43.29885" lon="-1.28339">
        <ele>522</ele>
        <time>2026-08-31T16:47:51.000Z</time>
      </trkpt>
      <trkpt lat="43.29913" lon="-1.28343">
        <ele>525</ele>
        <time>2026-08-31T16:48:54.000Z</time>
      </trkpt>
      <trkpt lat="43.29928" lon="-1.28354">
        <ele>526</ele>
        <time>2026-08-31T16:49:24.000Z</time>
      </trkpt>
      <trkpt lat="43.2995" lon="-1.28402">
        <ele>527</ele>
        <time>2026-08-31T16:50:21.000Z</time>
      </trkpt>
      <trkpt lat="43.2998" lon="-1.28454">
        <ele>527</ele>
        <time>2026-08-31T16:51:16.000Z</time>
      </trkpt>
      <trkpt lat="43.30002" lon="-1.2852">
        <ele>526</ele>
        <time>2026-08-31T16:52:17.000Z</time>
      </trkpt>
      <trkpt lat="43.30011" lon="-1.2854">
        <ele>526</ele>
        <time>2026-08-31T16:52:37.000Z</time>
      </trkpt>
      <trkpt lat="43.30048" lon="-1.28546">
        <ele>521</ele>
        <time>2026-08-31T16:53:19.000Z</time>
      </trkpt>
      <trkpt lat="43.30091" lon="-1.28572">
        <ele>516</ele>
        <time>2026-08-31T16:54:13.000Z</time>
      </trkpt>
      <trkpt lat="43.30118" lon="-1.28582">
        <ele>512</ele>
        <time>2026-08-31T16:54:45.000Z</time>
      </trkpt>
      <trkpt lat="43.30147" lon="-1.28603">
        <ele>507</ele>
        <time>2026-08-31T16:55:23.000Z</time>
      </trkpt>
      <trkpt lat="43.30165" lon="-1.28622">
        <ele>504</ele>
        <time>2026-08-31T16:55:49.000Z</time>
      </trkpt>
      <trkpt lat="43.30182" lon="-1.28633">
        <ele>500</ele>
        <time>2026-08-31T16:56:11.000Z</time>
      </trkpt>
      <trkpt lat="43.30176" lon="-1.28638">
        <ele>502</ele>
        <time>2026-08-31T16:56:40.000Z</time>
      </trkpt>
      <trkpt lat="43.30182" lon="-1.28633">
        <ele>500</ele>
        <time>2026-08-31T16:56:49.000Z</time>
      </trkpt>
      <trkpt lat="43.30203" lon="-1.28631">
        <ele>493</ele>
        <time>2026-08-31T16:57:13.000Z</time>
      </trkpt>
      <trkpt lat="43.30239" lon="-1.28619">
        <ele>482</ele>
        <time>2026-08-31T16:57:54.000Z</time>
      </trkpt>
      <trkpt lat="43.30268" lon="-1.28601">
        <ele>473</ele>
        <time>2026-08-31T16:58:31.000Z</time>
      </trkpt>
      <trkpt lat="43.30297" lon="-1.28582">
        <ele>469</ele>
        <time>2026-08-31T16:59:08.000Z</time>
      </trkpt>
      <trkpt lat="43.30297" lon="-1.28545">
        <ele>467</ele>
        <time>2026-08-31T16:59:39.000Z</time>
      </trkpt>
      <trkpt lat="43.30304" lon="-1.28528">
        <ele>464</ele>
        <time>2026-08-31T16:59:55.000Z</time>
      </trkpt>
      <trkpt lat="43.30336" lon="-1.28483">
        <ele>458</ele>
        <time>2026-08-31T17:00:48.000Z</time>
      </trkpt>
      <trkpt lat="43.30372" lon="-1.28406">
        <ele>446</ele>
        <time>2026-08-31T17:02:05.000Z</time>
      </trkpt>
      <trkpt lat="43.30382" lon="-1.28378">
        <ele>441</ele>
        <time>2026-08-31T17:02:30.000Z</time>
      </trkpt>
      <trkpt lat="43.30393" lon="-1.28361">
        <ele>439</ele>
        <time>2026-08-31T17:02:49.000Z</time>
      </trkpt>
      <trkpt lat="43.30394" lon="-1.28335">
        <ele>433</ele>
        <time>2026-08-31T17:03:11.000Z</time>
      </trkpt>
      <trkpt lat="43.30406" lon="-1.28304">
        <ele>427</ele>
        <time>2026-08-31T17:03:40.000Z</time>
      </trkpt>
      <trkpt lat="43.30401" lon="-1.28288">
        <ele>424</ele>
        <time>2026-08-31T17:03:55.000Z</time>
      </trkpt>
      <trkpt lat="43.30409" lon="-1.28283">
        <ele>423</ele>
        <time>2026-08-31T17:04:04.000Z</time>
      </trkpt>
      <trkpt lat="43.30412" lon="-1.28272">
        <ele>422</ele>
        <time>2026-08-31T17:04:14.000Z</time>
      </trkpt>
      <trkpt lat="43.30424" lon="-1.28273">
        <ele>420</ele>
        <time>2026-08-31T17:04:28.000Z</time>
      </trkpt>
      <trkpt lat="43.30429" lon="-1.28269">
        <ele>419</ele>
        <time>2026-08-31T17:04:34.000Z</time>
      </trkpt>
      <trkpt lat="43.30445" lon="-1.28244">
        <ele>412</ele>
        <time>2026-08-31T17:05:02.000Z</time>
      </trkpt>
      <trkpt lat="43.30452" lon="-1.28226">
        <ele>408</ele>
        <time>2026-08-31T17:05:19.000Z</time>
      </trkpt>
      <trkpt lat="43.30488" lon="-1.28189">
        <ele>393</ele>
        <time>2026-08-31T17:06:11.000Z</time>
      </trkpt>
      <trkpt lat="43.30515" lon="-1.28155">
        <ele>382</ele>
        <time>2026-08-31T17:06:53.000Z</time>
      </trkpt>
      <trkpt lat="43.30529" lon="-1.28157">
        <ele>379</ele>
        <time>2026-08-31T17:07:09.000Z</time>
      </trkpt>
      <trkpt lat="43.30551" lon="-1.28181">
        <ele>373</ele>
        <time>2026-08-31T17:07:41.000Z</time>
      </trkpt>
      <trkpt lat="43.30594" lon="-1.28271">
        <ele>361</ele>
        <time>2026-08-31T17:09:11.000Z</time>
      </trkpt>
      <trkpt lat="43.30598" lon="-1.28277">
        <ele>360</ele>
        <time>2026-08-31T17:09:17.000Z</time>
      </trkpt>
      <trkpt lat="43.30605" lon="-1.28279">
        <ele>358</ele>
        <time>2026-08-31T17:09:25.000Z</time>
      </trkpt>
      <trkpt lat="43.30608" lon="-1.28267">
        <ele>357</ele>
        <time>2026-08-31T17:09:36.000Z</time>
      </trkpt>
      <trkpt lat="43.30626" lon="-1.2834">
        <ele>353</ele>
        <time>2026-08-31T17:10:40.000Z</time>
      </trkpt>
      <trkpt lat="43.30646" lon="-1.28378">
        <ele>351</ele>
        <time>2026-08-31T17:11:19.000Z</time>
      </trkpt>
      <trkpt lat="43.30651" lon="-1.28402">
        <ele>350</ele>
        <time>2026-08-31T17:11:40.000Z</time>
      </trkpt>
      <trkpt lat="43.30657" lon="-1.28418">
        <ele>349</ele>
        <time>2026-08-31T17:11:55.000Z</time>
      </trkpt>
      <trkpt lat="43.30696" lon="-1.28449">
        <ele>337</ele>
        <time>2026-08-31T17:12:47.000Z</time>
      </trkpt>
      <trkpt lat="43.30704" lon="-1.28471">
        <ele>335</ele>
        <time>2026-08-31T17:13:08.000Z</time>
      </trkpt>
      <trkpt lat="43.30703" lon="-1.28497">
        <ele>336</ele>
        <time>2026-08-31T17:13:40.000Z</time>
      </trkpt>
      <trkpt lat="43.30703" lon="-1.28505">
        <ele>336</ele>
        <time>2026-08-31T17:13:47.000Z</time>
      </trkpt>
      <trkpt lat="43.30705" lon="-1.28509">
        <ele>335</ele>
        <time>2026-08-31T17:13:51.000Z</time>
      </trkpt>
      <trkpt lat="43.30718" lon="-1.28508">
        <ele>329</ele>
        <time>2026-08-31T17:14:06.000Z</time>
      </trkpt>
      <trkpt lat="43.30728" lon="-1.28486">
        <ele>325</ele>
        <time>2026-08-31T17:14:27.000Z</time>
      </trkpt>
      <trkpt lat="43.3074" lon="-1.28475">
        <ele>321</ele>
        <time>2026-08-31T17:14:43.000Z</time>
      </trkpt>
      <trkpt lat="43.30764" lon="-1.28418">
        <ele>309</ele>
        <time>2026-08-31T17:15:38.000Z</time>
      </trkpt>
      <trkpt lat="43.30786" lon="-1.28393">
        <ele>301</ele>
        <time>2026-08-31T17:16:11.000Z</time>
      </trkpt>
      <trkpt lat="43.30802" lon="-1.28356">
        <ele>299</ele>
        <time>2026-08-31T17:16:47.000Z</time>
      </trkpt>
      <trkpt lat="43.30826" lon="-1.2827">
        <ele>296</ele>
        <time>2026-08-31T17:18:04.000Z</time>
      </trkpt>
      <trkpt lat="43.30839" lon="-1.28236">
        <ele>294</ele>
        <time>2026-08-31T17:18:36.000Z</time>
      </trkpt>
      <trkpt lat="43.30852" lon="-1.28233">
        <ele>294</ele>
        <time>2026-08-31T17:18:51.000Z</time>
      </trkpt>
      <trkpt lat="43.30882" lon="-1.28247">
        <ele>297</ele>
        <time>2026-08-31T17:19:57.000Z</time>
      </trkpt>
      <trkpt lat="43.30925" lon="-1.28256">
        <ele>298</ele>
        <time>2026-08-31T17:20:58.000Z</time>
      </trkpt>
      <trkpt lat="43.30934" lon="-1.28286">
        <ele>296</ele>
        <time>2026-08-31T17:21:25.000Z</time>
      </trkpt>
    </trkseg>
  </trk>
</gpx>